KHRO/HRO METAR and TAF weather

Enter ICAO airport designator
Station Type Date Time Source
KHRO METAR 2018/12/10 01:53 UTC NOAA

KHRO 100153Z AUTO 32006KT 10SM CLR M01/M08 A3027 RMK AO2 SLP265 T10111078


Station Type Date Time Source
KHRO Decoded METAR 2018/12/10 01:53 UTC NOAA

HARRISON BOONE COUNTY AIRPORT , AR, United States (KHRO) 36-16N 093-09W 417M
Dec 09, 2018 - 08:53 PM EST / 2018.12.10 0153 UTC
Wind: from the NW (320 degrees) at 7 MPH (6 KT):0
Visibility: 10 mile(s):0
Sky conditions: clear
Temperature: 30.0 F (-1.1 C)
Windchill: 23 F (-5 C):1
Dew Point: 18.0 F (-7.8 C)
Relative Humidity: 60%
Pressure (altimeter): 30.27 in. Hg (1025 hPa)
ob: KHRO 100153Z AUTO 32006KT 10SM CLR M01/M08 A3027 RMK AO2 SLP265 T10111078
cycle: 2

Station Type Date Time Source
KHRO TAF 2018/12/09 18:22 UTC NOAA

TAF KHRO 091720Z 0918/1018 33007KT P6SM SCT250
FM100100 VRB05KT P6SM SCT250


Example: see airport list